Aviation Digital Data Service (ADDS)

Output produced by METARs form (0211 UTC 22 February 2019)
found at http://www.aviationweather.gov/metar/data/
 
METAR text: ENBO 220150Z 08018KT CAVOK M03/M12 Q1024
Conditions at: ENBO (BODO VI (CIV/MIL, NO) observed 0150 UTC 22 February 2019
Temperature: -3.0°C (27°F)
Dewpoint: -12.0°C (10°F) [RH = 50%]
Pressure (altimeter): 30.24 inches Hg (1024.0 mb)
Winds: from the E (80 degrees) at 21 MPH (18 knots; 9.3 m/s)
Visibility: 6 or more miles (10+ km)
Ceiling: ceiling and visibility are OK
Clouds: unknown
Weather: no significant weather observed at this time

METAR text: ENBO 220050Z 07012KT CAVOK M03/M13 Q1024
Conditions at: ENBO (BODO VI (CIV/MIL, NO) observed 0050 UTC 22 February 2019
Temperature: -3.0°C (27°F)
Dewpoint: -13.0°C ( 9°F) [RH = 46%]
Pressure (altimeter): 30.24 inches Hg (1024.0 mb)
Winds: from the ENE (70 degrees) at 14 MPH (12 knots; 6.2 m/s)
Visibility: 6 or more miles (10+ km)
Ceiling: ceiling and visibility are OK
Clouds: unknown
Weather: no significant weather observed at this time

METAR text: ENBO 212350Z 07012KT CAVOK M03/M13 Q1024
Conditions at: ENBO (BODO VI (CIV/MIL, NO) observed 2350 UTC 21 February 2019
Temperature: -3.0°C (27°F)
Dewpoint: -13.0°C ( 9°F) [RH = 46%]
Pressure (altimeter): 30.24 inches Hg (1024.0 mb)
Winds: from the ENE (70 degrees) at 14 MPH (12 knots; 6.2 m/s)
Visibility: 6 or more miles (10+ km)
Ceiling: ceiling and visibility are OK
Clouds: unknown
Weather: no significant weather observed at this time

METAR text: ENBO 212250Z 08017KT CAVOK M02/M13 Q1024 NOSIG
Conditions at: ENBO (BODO VI (CIV/MIL, NO) observed 2250 UTC 21 February 2019
Temperature: -2.0°C (28°F)
Dewpoint: -13.0°C ( 9°F) [RH = 43%]
Pressure (altimeter): 30.24 inches Hg (1024.0 mb)
Winds: from the E (80 degrees) at 20 MPH (17 knots; 8.7 m/s)
Visibility: 6 or more miles (10+ km)
Ceiling: ceiling and visibility are OK
Clouds: unknown
Weather: no significant weather observed at this time

METAR text: ENBO 212220Z 08016KT CAVOK M02/M13 Q1024 NOSIG
Conditions at: ENBO (BODO VI (CIV/MIL, NO) observed 2220 UTC 21 February 2019
Temperature: -2.0°C (28°F)
Dewpoint: -13.0°C ( 9°F) [RH = 43%]
Pressure (altimeter): 30.24 inches Hg (1024.0 mb)
Winds: from the E (80 degrees) at 18 MPH (16 knots; 8.2 m/s)
Visibility: 6 or more miles (10+ km)
Ceiling: ceiling and visibility are OK
Clouds: unknown
Weather: no significant weather observed at this time

METAR text: ENBO 212150Z 08018KT CAVOK M03/M14 Q1024 NOSIG
Conditions at: ENBO (BODO VI (CIV/MIL, NO) observed 2150 UTC 21 February 2019
Temperature: -3.0°C (27°F)
Dewpoint: -14.0°C ( 7°F) [RH = 42%]
Pressure (altimeter): 30.24 inches Hg (1024.0 mb)
Winds: from the E (80 degrees) at 21 MPH (18 knots; 9.3 m/s)
Visibility: 6 or more miles (10+ km)
Ceiling: ceiling and visibility are OK
Clouds: unknown
Weather: no significant weather observed at this time

METAR text: ENBO 212120Z 08019KT CAVOK M03/M14 Q1024 NOSIG
Conditions at: ENBO (BODO VI (CIV/MIL, NO) observed 2120 UTC 21 February 2019
Temperature: -3.0°C (27°F)
Dewpoint: -14.0°C ( 7°F) [RH = 42%]
Pressure (altimeter): 30.24 inches Hg (1024.0 mb)
Winds: from the E (80 degrees) at 22 MPH (19 knots; 9.8 m/s)
Visibility: 6 or more miles (10+ km)
Ceiling: ceiling and visibility are OK
Clouds: unknown
Weather: no significant weather observed at this time

METAR text: ENBO 212050Z 08022KT CAVOK M03/M14 Q1023 NOSIG
Conditions at: ENBO (BODO VI (CIV/MIL, NO) observed 2050 UTC 21 February 2019
Temperature: -3.0°C (27°F)
Dewpoint: -14.0°C ( 7°F) [RH = 42%]
Pressure (altimeter): 30.21 inches Hg (1023.0 mb)
Winds: from the E (80 degrees) at 25 MPH (22 knots; 11.3 m/s)
Visibility: 6 or more miles (10+ km)
Ceiling: ceiling and visibility are OK
Clouds: unknown
Weather: no significant weather observed at this time

METAR text: ENBO 212020Z 08023KT CAVOK M03/M14 Q1023 NOSIG
Conditions at: ENBO (BODO VI (CIV/MIL, NO) observed 2020 UTC 21 February 2019
Temperature: -3.0°C (27°F)
Dewpoint: -14.0°C ( 7°F) [RH = 42%]
Pressure (altimeter): 30.21 inches Hg (1023.0 mb)
Winds: from the E (80 degrees) at 26 MPH (23 knots; 11.8 m/s)
Visibility: 6 or more miles (10+ km)
Ceiling: ceiling and visibility are OK
Clouds: unknown
Weather: no significant weather observed at this time

METAR text: ENBO 211950Z 08022KT CAVOK M03/M14 Q1023 NOSIG
Conditions at: ENBO (BODO VI (CIV/MIL, NO) observed 1950 UTC 21 February 2019
Temperature: -3.0°C (27°F)
Dewpoint: -14.0°C ( 7°F) [RH = 42%]
Pressure (altimeter): 30.21 inches Hg (1023.0 mb)
Winds: from the E (80 degrees) at 25 MPH (22 knots; 11.3 m/s)
Visibility: 6 or more miles (10+ km)
Ceiling: ceiling and visibility are OK
Clouds: unknown
Weather: no significant weather observed at this time

METAR text: ENBO 211920Z 08022KT CAVOK M03/M14 Q1023 NOSIG
Conditions at: ENBO (BODO VI (CIV/MIL, NO) observed 1920 UTC 21 February 2019
Temperature: -3.0°C (27°F)
Dewpoint: -14.0°C ( 7°F) [RH = 42%]
Pressure (altimeter): 30.21 inches Hg (1023.0 mb)
Winds: from the E (80 degrees) at 25 MPH (22 knots; 11.3 m/s)
Visibility: 6 or more miles (10+ km)
Ceiling: ceiling and visibility are OK
Clouds: unknown
Weather: no significant weather observed at this time

METAR text: ENBO 211850Z 08022KT CAVOK M03/M14 Q1023 NOSIG
Conditions at: ENBO (BODO VI (CIV/MIL, NO) observed 1850 UTC 21 February 2019
Temperature: -3.0°C (27°F)
Dewpoint: -14.0°C ( 7°F) [RH = 42%]
Pressure (altimeter): 30.21 inches Hg (1023.0 mb)
Winds: from the E (80 degrees) at 25 MPH (22 knots; 11.3 m/s)
Visibility: 6 or more miles (10+ km)
Ceiling: ceiling and visibility are OK
Clouds: unknown
Weather: no significant weather observed at this time

METAR text: ENBO 211820Z 08023KT CAVOK M03/M14 Q1024 NOSIG
Conditions at: ENBO (BODO VI (CIV/MIL, NO) observed 1820 UTC 21 February 2019
Temperature: -3.0°C (27°F)
Dewpoint: -14.0°C ( 7°F) [RH = 42%]
Pressure (altimeter): 30.24 inches Hg (1024.0 mb)
Winds: from the E (80 degrees) at 26 MPH (23 knots; 11.8 m/s)
Visibility: 6 or more miles (10+ km)
Ceiling: ceiling and visibility are OK
Clouds: unknown
Weather: no significant weather observed at this time

METAR text: ENBO 211750Z 08021KT CAVOK M03/M14 Q1024 NOSIG
Conditions at: ENBO (BODO VI (CIV/MIL, NO) observed 1750 UTC 21 February 2019
Temperature: -3.0°C (27°F)
Dewpoint: -14.0°C ( 7°F) [RH = 42%]
Pressure (altimeter): 30.24 inches Hg (1024.0 mb)
Winds: from the E (80 degrees) at 24 MPH (21 knots; 10.8 m/s)
Visibility: 6 or more miles (10+ km)
Ceiling: ceiling and visibility are OK
Clouds: unknown
Weather: no significant weather observed at this time

METAR text: ENBO 211720Z 08020KT CAVOK M03/M14 Q1024 NOSIG
Conditions at: ENBO (BODO VI (CIV/MIL, NO) observed 1720 UTC 21 February 2019
Temperature: -3.0°C (27°F)
Dewpoint: -14.0°C ( 7°F) [RH = 42%]
Pressure (altimeter): 30.24 inches Hg (1024.0 mb)
Winds: from the E (80 degrees) at 23 MPH (20 knots; 10.3 m/s)
Visibility: 6 or more miles (10+ km)
Ceiling: ceiling and visibility are OK
Clouds: unknown
Weather: no significant weather observed at this time

METAR text: ENBO 211650Z 07019KT CAVOK M03/M14 Q1023 NOSIG
Conditions at: ENBO (BODO VI (CIV/MIL, NO) observed 1650 UTC 21 February 2019
Temperature: -3.0°C (27°F)
Dewpoint: -14.0°C ( 7°F) [RH = 42%]
Pressure (altimeter): 30.21 inches Hg (1023.0 mb)
Winds: from the ENE (70 degrees) at 22 MPH (19 knots; 9.8 m/s)
Visibility: 6 or more miles (10+ km)
Ceiling: ceiling and visibility are OK
Clouds: unknown
Weather: no significant weather observed at this time

METAR text: ENBO 211620Z 08020KT CAVOK M03/M13 Q1023 NOSIG
Conditions at: ENBO (BODO VI (CIV/MIL, NO) observed 1620 UTC 21 February 2019
Temperature: -3.0°C (27°F)
Dewpoint: -13.0°C ( 9°F) [RH = 46%]
Pressure (altimeter): 30.21 inches Hg (1023.0 mb)
Winds: from the E (80 degrees) at 23 MPH (20 knots; 10.3 m/s)
Visibility: 6 or more miles (10+ km)
Ceiling: ceiling and visibility are OK
Clouds: unknown
Weather: no significant weather observed at this time

METAR text: ENBO 211550Z 08023KT CAVOK M03/M14 Q1022 NOSIG
Conditions at: ENBO (BODO VI (CIV/MIL, NO) observed 1550 UTC 21 February 2019
Temperature: -3.0°C (27°F)
Dewpoint: -14.0°C ( 7°F) [RH = 42%]
Pressure (altimeter): 30.18 inches Hg (1022.0 mb)
Winds: from the E (80 degrees) at 26 MPH (23 knots; 11.8 m/s)
Visibility: 6 or more miles (10+ km)
Ceiling: ceiling and visibility are OK
Clouds: unknown
Weather: no significant weather observed at this time

METAR text: ENBO 211520Z 08024KT CAVOK M03/M13 Q1021 NOSIG
Conditions at: ENBO (BODO VI (CIV/MIL, NO) observed 1520 UTC 21 February 2019
Temperature: -3.0°C (27°F)
Dewpoint: -13.0°C ( 9°F) [RH = 46%]
Pressure (altimeter): 30.15 inches Hg (1021.0 mb)
Winds: from the E (80 degrees) at 28 MPH (24 knots; 12.3 m/s)
Visibility: 6 or more miles (10+ km)
Ceiling: ceiling and visibility are OK
Clouds: unknown
Weather: no significant weather observed at this time

METAR text: ENBO 211450Z 07023KT CAVOK M03/M14 Q1022 NOSIG
Conditions at: ENBO (BODO VI (CIV/MIL, NO) observed 1450 UTC 21 February 2019
Temperature: -3.0°C (27°F)
Dewpoint: -14.0°C ( 7°F) [RH = 42%]
Pressure (altimeter): 30.18 inches Hg (1022.0 mb)
Winds: from the ENE (70 degrees) at 26 MPH (23 knots; 11.8 m/s)
Visibility: 6 or more miles (10+ km)
Ceiling: ceiling and visibility are OK
Clouds: unknown
Weather: no significant weather observed at this time

METAR text: ENBO 211420Z 08020KT CAVOK M03/M14 Q1022 NOSIG
Conditions at: ENBO (BODO VI (CIV/MIL, NO) observed 1420 UTC 21 February 2019
Temperature: -3.0°C (27°F)
Dewpoint: -14.0°C ( 7°F) [RH = 42%]
Pressure (altimeter): 30.18 inches Hg (1022.0 mb)
Winds: from the E (80 degrees) at 23 MPH (20 knots; 10.3 m/s)
Visibility: 6 or more miles (10+ km)
Ceiling: ceiling and visibility are OK
Clouds: unknown
Weather: no significant weather observed at this time

METAR text: ENBO 211350Z 08020KT CAVOK M02/M13 Q1022 NOSIG
Conditions at: ENBO (BODO VI (CIV/MIL, NO) observed 1350 UTC 21 February 2019
Temperature: -2.0°C (28°F)
Dewpoint: -13.0°C ( 9°F) [RH = 43%]
Pressure (altimeter): 30.18 inches Hg (1022.0 mb)
Winds: from the E (80 degrees) at 23 MPH (20 knots; 10.3 m/s)
Visibility: 6 or more miles (10+ km)
Ceiling: ceiling and visibility are OK
Clouds: unknown
Weather: no significant weather observed at this time

METAR text: ENBO 211320Z 08020KT CAVOK M02/M13 Q1022 NOSIG
Conditions at: ENBO (BODO VI (CIV/MIL, NO) observed 1320 UTC 21 February 2019
Temperature: -2.0°C (28°F)
Dewpoint: -13.0°C ( 9°F) [RH = 43%]
Pressure (altimeter): 30.18 inches Hg (1022.0 mb)
Winds: from the E (80 degrees) at 23 MPH (20 knots; 10.3 m/s)
Visibility: 6 or more miles (10+ km)
Ceiling: ceiling and visibility are OK
Clouds: unknown
Weather: no significant weather observed at this time

METAR text: ENBO 211250Z 08021KT CAVOK M02/M14 Q1022 NOSIG
Conditions at: ENBO (BODO VI (CIV/MIL, NO) observed 1250 UTC 21 February 2019
Temperature: -2.0°C (28°F)
Dewpoint: -14.0°C ( 7°F) [RH = 39%]
Pressure (altimeter): 30.18 inches Hg (1022.0 mb)
Winds: from the E (80 degrees) at 24 MPH (21 knots; 10.8 m/s)
Visibility: 6 or more miles (10+ km)
Ceiling: ceiling and visibility are OK
Clouds: unknown
Weather: no significant weather observed at this time

METAR text: ENBO 211220Z 08022KT CAVOK M03/M14 Q1021 NOSIG
Conditions at: ENBO (BODO VI (CIV/MIL, NO) observed 1220 UTC 21 February 2019
Temperature: -3.0°C (27°F)
Dewpoint: -14.0°C ( 7°F) [RH = 42%]
Pressure (altimeter): 30.15 inches Hg (1021.0 mb)
Winds: from the E (80 degrees) at 25 MPH (22 knots; 11.3 m/s)
Visibility: 6 or more miles (10+ km)
Ceiling: ceiling and visibility are OK
Clouds: unknown
Weather: no significant weather observed at this time

METAR text: ENBO 211150Z 08022KT CAVOK M03/M13 Q1021 NOSIG
Conditions at: ENBO (BODO VI (CIV/MIL, NO) observed 1150 UTC 21 February 2019
Temperature: -3.0°C (27°F)
Dewpoint: -13.0°C ( 9°F) [RH = 46%]
Pressure (altimeter): 30.15 inches Hg (1021.0 mb)
Winds: from the E (80 degrees) at 25 MPH (22 knots; 11.3 m/s)
Visibility: 6 or more miles (10+ km)
Ceiling: ceiling and visibility are OK
Clouds: unknown
Weather: no significant weather observed at this time

METAR text: ENBO 211120Z 08020KT CAVOK M03/M12 Q1020 NOSIG
Conditions at: ENBO (BODO VI (CIV/MIL, NO) observed 1120 UTC 21 February 2019
Temperature: -3.0°C (27°F)
Dewpoint: -12.0°C (10°F) [RH = 50%]
Pressure (altimeter): 30.12 inches Hg (1020.0 mb)
Winds: from the E (80 degrees) at 23 MPH (20 knots; 10.3 m/s)
Visibility: 6 or more miles (10+ km)
Ceiling: ceiling and visibility are OK
Clouds: unknown
Weather: no significant weather observed at this time

METAR text: ENBO 211050Z 08022KT CAVOK M03/M14 Q1020 NOSIG
Conditions at: ENBO (BODO VI (CIV/MIL, NO) observed 1050 UTC 21 February 2019
Temperature: -3.0°C (27°F)
Dewpoint: -14.0°C ( 7°F) [RH = 42%]
Pressure (altimeter): 30.12 inches Hg (1020.0 mb)
Winds: from the E (80 degrees) at 25 MPH (22 knots; 11.3 m/s)
Visibility: 6 or more miles (10+ km)
Ceiling: ceiling and visibility are OK
Clouds: unknown
Weather: no significant weather observed at this time

METAR text: ENBO 211020Z 08021KT CAVOK M03/M12 Q1020 NOSIG
Conditions at: ENBO (BODO VI (CIV/MIL, NO) observed 1020 UTC 21 February 2019
Temperature: -3.0°C (27°F)
Dewpoint: -12.0°C (10°F) [RH = 50%]
Pressure (altimeter): 30.12 inches Hg (1020.0 mb)
Winds: from the E (80 degrees) at 24 MPH (21 knots; 10.8 m/s)
Visibility: 6 or more miles (10+ km)
Ceiling: ceiling and visibility are OK
Clouds: unknown
Weather: no significant weather observed at this time

METAR text: ENBO 210950Z 08021KT CAVOK M03/M12 Q1020 NOSIG
Conditions at: ENBO (BODO VI (CIV/MIL, NO) observed 0950 UTC 21 February 2019
Temperature: -3.0°C (27°F)
Dewpoint: -12.0°C (10°F) [RH = 50%]
Pressure (altimeter): 30.12 inches Hg (1020.0 mb)
Winds: from the E (80 degrees) at 24 MPH (21 knots; 10.8 m/s)
Visibility: 6 or more miles (10+ km)
Ceiling: ceiling and visibility are OK
Clouds: unknown
Weather: no significant weather observed at this time

METAR text: ENBO 210920Z 08021KT CAVOK M04/M12 Q1020 NOSIG
Conditions at: ENBO (BODO VI (CIV/MIL, NO) observed 0920 UTC 21 February 2019
Temperature: -4.0°C (25°F)
Dewpoint: -12.0°C (10°F) [RH = 54%]
Pressure (altimeter): 30.12 inches Hg (1020.0 mb)
Winds: from the E (80 degrees) at 24 MPH (21 knots; 10.8 m/s)
Visibility: 6 or more miles (10+ km)
Ceiling: ceiling and visibility are OK
Clouds: unknown
Weather: no significant weather observed at this time

METAR text: ENBO 210850Z 08021KT CAVOK M04/M12 Q1020 NOSIG
Conditions at: ENBO (BODO VI (CIV/MIL, NO) observed 0850 UTC 21 February 2019
Temperature: -4.0°C (25°F)
Dewpoint: -12.0°C (10°F) [RH = 54%]
Pressure (altimeter): 30.12 inches Hg (1020.0 mb)
Winds: from the E (80 degrees) at 24 MPH (21 knots; 10.8 m/s)
Visibility: 6 or more miles (10+ km)
Ceiling: ceiling and visibility are OK
Clouds: unknown
Weather: no significant weather observed at this time

METAR text: ENBO 210820Z 08021KT CAVOK M04/M11 Q1019 NOSIG
Conditions at: ENBO (BODO VI (CIV/MIL, NO) observed 0820 UTC 21 February 2019
Temperature: -4.0°C (25°F)
Dewpoint: -11.0°C (12°F) [RH = 58%]
Pressure (altimeter): 30.09 inches Hg (1019.0 mb)
Winds: from the E (80 degrees) at 24 MPH (21 knots; 10.8 m/s)
Visibility: 6 or more miles (10+ km)
Ceiling: ceiling and visibility are OK
Clouds: unknown
Weather: no significant weather observed at this time

METAR text: ENBO 210750Z 08019KT CAVOK M04/M12 Q1019 NOSIG
Conditions at: ENBO (BODO VI (CIV/MIL, NO) observed 0750 UTC 21 February 2019
Temperature: -4.0°C (25°F)
Dewpoint: -12.0°C (10°F) [RH = 54%]
Pressure (altimeter): 30.09 inches Hg (1019.0 mb)
Winds: from the E (80 degrees) at 22 MPH (19 knots; 9.8 m/s)
Visibility: 6 or more miles (10+ km)
Ceiling: ceiling and visibility are OK
Clouds: unknown
Weather: no significant weather observed at this time

METAR text: ENBO 210720Z 07019KT CAVOK M04/M11 Q1019 NOSIG
Conditions at: ENBO (BODO VI (CIV/MIL, NO) observed 0720 UTC 21 February 2019
Temperature: -4.0°C (25°F)
Dewpoint: -11.0°C (12°F) [RH = 58%]
Pressure (altimeter): 30.09 inches Hg (1019.0 mb)
Winds: from the ENE (70 degrees) at 22 MPH (19 knots; 9.8 m/s)
Visibility: 6 or more miles (10+ km)
Ceiling: ceiling and visibility are OK
Clouds: unknown
Weather: no significant weather observed at this time

METAR text: ENBO 210650Z 08019KT CAVOK M04/M12 Q1018 NOSIG
Conditions at: ENBO (BODO VI (CIV/MIL, NO) observed 0650 UTC 21 February 2019
Temperature: -4.0°C (25°F)
Dewpoint: -12.0°C (10°F) [RH = 54%]
Pressure (altimeter): 30.06 inches Hg (1018.0 mb)
Winds: from the E (80 degrees) at 22 MPH (19 knots; 9.8 m/s)
Visibility: 6 or more miles (10+ km)
Ceiling: ceiling and visibility are OK
Clouds: unknown
Weather: no significant weather observed at this time

METAR text: ENBO 210620Z 08019KT CAVOK M04/M12 Q1018 NOSIG
Conditions at: ENBO (BODO VI (CIV/MIL, NO) observed 0620 UTC 21 February 2019
Temperature: -4.0°C (25°F)
Dewpoint: -12.0°C (10°F) [RH = 54%]
Pressure (altimeter): 30.06 inches Hg (1018.0 mb)
Winds: from the E (80 degrees) at 22 MPH (19 knots; 9.8 m/s)
Visibility: 6 or more miles (10+ km)
Ceiling: ceiling and visibility are OK
Clouds: unknown
Weather: no significant weather observed at this time

METAR text: ENBO 210550Z 08019KT CAVOK M04/M12 Q1018 NOSIG
Conditions at: ENBO (BODO VI (CIV/MIL, NO) observed 0550 UTC 21 February 2019
Temperature: -4.0°C (25°F)
Dewpoint: -12.0°C (10°F) [RH = 54%]
Pressure (altimeter): 30.06 inches Hg (1018.0 mb)
Winds: from the E (80 degrees) at 22 MPH (19 knots; 9.8 m/s)
Visibility: 6 or more miles (10+ km)
Ceiling: ceiling and visibility are OK
Clouds: unknown
Weather: no significant weather observed at this time

METAR text: ENBO 210520Z 08019KT CAVOK M04/M11 Q1018 NOSIG
Conditions at: ENBO (BODO VI (CIV/MIL, NO) observed 0520 UTC 21 February 2019
Temperature: -4.0°C (25°F)
Dewpoint: -11.0°C (12°F) [RH = 58%]
Pressure (altimeter): 30.06 inches Hg (1018.0 mb)
Winds: from the E (80 degrees) at 22 MPH (19 knots; 9.8 m/s)
Visibility: 6 or more miles (10+ km)
Ceiling: ceiling and visibility are OK
Clouds: unknown
Weather: no significant weather observed at this time

METAR text: ENBO 210450Z 08020KT CAVOK M04/M11 Q1017 NOSIG
Conditions at: ENBO (BODO VI (CIV/MIL, NO) observed 0450 UTC 21 February 2019
Temperature: -4.0°C (25°F)
Dewpoint: -11.0°C (12°F) [RH = 58%]
Pressure (altimeter): 30.03 inches Hg (1017.0 mb)
Winds: from the E (80 degrees) at 23 MPH (20 knots; 10.3 m/s)
Visibility: 6 or more miles (10+ km)
Ceiling: ceiling and visibility are OK
Clouds: unknown
Weather: no significant weather observed at this time

METAR text: ENBO 210420Z 08020KT CAVOK M04/M11 Q1017 NOSIG
Conditions at: ENBO (BODO VI (CIV/MIL, NO) observed 0420 UTC 21 February 2019
Temperature: -4.0°C (25°F)
Dewpoint: -11.0°C (12°F) [RH = 58%]
Pressure (altimeter): 30.03 inches Hg (1017.0 mb)
Winds: from the E (80 degrees) at 23 MPH (20 knots; 10.3 m/s)
Visibility: 6 or more miles (10+ km)
Ceiling: ceiling and visibility are OK
Clouds: unknown
Weather: no significant weather observed at this time

METAR text: ENBO 210350Z 08019KT CAVOK M04/M11 Q1017 NOSIG
Conditions at: ENBO (BODO VI (CIV/MIL, NO) observed 0350 UTC 21 February 2019
Temperature: -4.0°C (25°F)
Dewpoint: -11.0°C (12°F) [RH = 58%]
Pressure (altimeter): 30.03 inches Hg (1017.0 mb)
Winds: from the E (80 degrees) at 22 MPH (19 knots; 9.8 m/s)
Visibility: 6 or more miles (10+ km)
Ceiling: ceiling and visibility are OK
Clouds: unknown
Weather: no significant weather observed at this time

METAR text: ENBO 210250Z 08020KT CAVOK M04/M11 Q1017 NOSIG
Conditions at: ENBO (BODO VI (CIV/MIL, NO) observed 0250 UTC 21 February 2019
Temperature: -4.0°C (25°F)
Dewpoint: -11.0°C (12°F) [RH = 58%]
Pressure (altimeter): 30.03 inches Hg (1017.0 mb)
Winds: from the E (80 degrees) at 23 MPH (20 knots; 10.3 m/s)
Visibility: 6 or more miles (10+ km)
Ceiling: ceiling and visibility are OK
Clouds: unknown
Weather: no significant weather observed at this time

METAR text: ENBO 210150Z 08018KT CAVOK M04/M10 Q1017 NOSIG
Conditions at: ENBO (BODO VI (CIV/MIL, NO) observed 0150 UTC 21 February 2019
Temperature: -4.0°C (25°F)
Dewpoint: -10.0°C (14°F) [RH = 63%]
Pressure (altimeter): 30.03 inches Hg (1017.0 mb)
Winds: from the E (80 degrees) at 21 MPH (18 knots; 9.3 m/s)
Visibility: 6 or more miles (10+ km)
Ceiling: ceiling and visibility are OK
Clouds: unknown
Weather: no significant weather observed at this time

METAR text: ENBO 210050Z 08019KT 9999 FEW050 BKN085 M04/M10 Q1017 NOSIG
Conditions at: ENBO (BODO VI (CIV/MIL, NO) observed 0050 UTC 21 February 2019
Temperature: -4.0°C (25°F)
Dewpoint: -10.0°C (14°F) [RH = 63%]
Pressure (altimeter): 30.03 inches Hg (1017.0 mb)
Winds: from the E (80 degrees) at 22 MPH (19 knots; 9.8 m/s)
Visibility: 6 or more miles (10+ km)
Ceiling: 8500 feet AGL
Clouds: few clouds at 5000 feet AGL
broken clouds at 8500 feet AGL
Weather: no significant weather observed at this time

METAR text: ENBO 202350Z 08018KT 9999 FEW050 BKN085 M04/M09 Q1017 NOSIG
Conditions at: ENBO (BODO VI (CIV/MIL, NO) observed 2350 UTC 20 February 2019
Temperature: -4.0°C (25°F)
Dewpoint: -9.0°C (16°F) [RH = 68%]
Pressure (altimeter): 30.03 inches Hg (1017.0 mb)
Winds: from the E (80 degrees) at 21 MPH (18 knots; 9.3 m/s)
Visibility: 6 or more miles (10+ km)
Ceiling: 8500 feet AGL
Clouds: few clouds at 5000 feet AGL
broken clouds at 8500 feet AGL
Weather: no significant weather observed at this time

METAR text: ENBO 202250Z 08015KT 9999 FEW035 BKN050 M04/M10 Q1017 NOSIG
Conditions at: ENBO (BODO VI (CIV/MIL, NO) observed 2250 UTC 20 February 2019
Temperature: -4.0°C (25°F)
Dewpoint: -10.0°C (14°F) [RH = 63%]
Pressure (altimeter): 30.03 inches Hg (1017.0 mb)
Winds: from the E (80 degrees) at 17 MPH (15 knots; 7.7 m/s)
Visibility: 6 or more miles (10+ km)
Ceiling: 5000 feet AGL
Clouds: few clouds at 3500 feet AGL
broken clouds at 5000 feet AGL
Weather: no significant weather observed at this time

METAR text: ENBO 202220Z 08015KT 9999 SCT050 BKN090 M04/M10 Q1016 NOSIG
Conditions at: ENBO (BODO VI (CIV/MIL, NO) observed 2220 UTC 20 February 2019
Temperature: -4.0°C (25°F)
Dewpoint: -10.0°C (14°F) [RH = 63%]
Pressure (altimeter): 30.00 inches Hg (1016.0 mb)
Winds: from the E (80 degrees) at 17 MPH (15 knots; 7.7 m/s)
Visibility: 6 or more miles (10+ km)
Ceiling: 9000 feet AGL
Clouds: scattered clouds at 5000 feet AGL
broken clouds at 9000 feet AGL
Weather: no significant weather observed at this time

METAR text: ENBO 202150Z 08016KT 9999 FEW060 BKN090 M04/M10 Q1017 NOSIG
Conditions at: ENBO (BODO VI (CIV/MIL, NO) observed 2150 UTC 20 February 2019
Temperature: -4.0°C (25°F)
Dewpoint: -10.0°C (14°F) [RH = 63%]
Pressure (altimeter): 30.03 inches Hg (1017.0 mb)
Winds: from the E (80 degrees) at 18 MPH (16 knots; 8.2 m/s)
Visibility: 6 or more miles (10+ km)
Ceiling: 9000 feet AGL
Clouds: few clouds at 6000 feet AGL
broken clouds at 9000 feet AGL
Weather: no significant weather observed at this time

METAR text: ENBO 202120Z 08016KT CAVOK M04/M10 Q1016 NOSIG
Conditions at: ENBO (BODO VI (CIV/MIL, NO) observed 2120 UTC 20 February 2019
Temperature: -4.0°C (25°F)
Dewpoint: -10.0°C (14°F) [RH = 63%]
Pressure (altimeter): 30.00 inches Hg (1016.0 mb)
Winds: from the E (80 degrees) at 18 MPH (16 knots; 8.2 m/s)
Visibility: 6 or more miles (10+ km)
Ceiling: ceiling and visibility are OK
Clouds: unknown
Weather: no significant weather observed at this time

METAR text: ENBO 202050Z 08015KT CAVOK M04/M10 Q1016 NOSIG
Conditions at: ENBO (BODO VI (CIV/MIL, NO) observed 2050 UTC 20 February 2019
Temperature: -4.0°C (25°F)
Dewpoint: -10.0°C (14°F) [RH = 63%]
Pressure (altimeter): 30.00 inches Hg (1016.0 mb)
Winds: from the E (80 degrees) at 17 MPH (15 knots; 7.7 m/s)
Visibility: 6 or more miles (10+ km)
Ceiling: ceiling and visibility are OK
Clouds: unknown
Weather: no significant weather observed at this time

METAR text: ENBO 202020Z 08015KT 9999 FEW060 BKN100 M04/M10 Q1016 NOSIG
Conditions at: ENBO (BODO VI (CIV/MIL, NO) observed 2020 UTC 20 February 2019
Temperature: -4.0°C (25°F)
Dewpoint: -10.0°C (14°F) [RH = 63%]
Pressure (altimeter): 30.00 inches Hg (1016.0 mb)
Winds: from the E (80 degrees) at 17 MPH (15 knots; 7.7 m/s)
Visibility: 6 or more miles (10+ km)
Ceiling: 10000 feet AGL
Clouds: few clouds at 6000 feet AGL
broken clouds at 10000 feet AGL
Weather: no significant weather observed at this time

METAR text: ENBO 201950Z 08014KT 9999 FEW050 SCT070 BKN100 M04/M10 Q1016 NOSIG
Conditions at: ENBO (BODO VI (CIV/MIL, NO) observed 1950 UTC 20 February 2019
Temperature: -4.0°C (25°F)
Dewpoint: -10.0°C (14°F) [RH = 63%]
Pressure (altimeter): 30.00 inches Hg (1016.0 mb)
Winds: from the E (80 degrees) at 16 MPH (14 knots; 7.2 m/s)
Visibility: 6 or more miles (10+ km)
Ceiling: 10000 feet AGL
Clouds: few clouds at 5000 feet AGL
scattered clouds at 7000 feet AGL
broken clouds at 10000 feet AGL
Weather: no significant weather observed at this time

METAR text: ENBO 201920Z 07014KT 9999 FEW050 SCT070 BKN100 M04/M10 Q1016 NOSIG
Conditions at: ENBO (BODO VI (CIV/MIL, NO) observed 1920 UTC 20 February 2019
Temperature: -4.0°C (25°F)
Dewpoint: -10.0°C (14°F) [RH = 63%]
Pressure (altimeter): 30.00 inches Hg (1016.0 mb)
Winds: from the ENE (70 degrees) at 16 MPH (14 knots; 7.2 m/s)
Visibility: 6 or more miles (10+ km)
Ceiling: 10000 feet AGL
Clouds: few clouds at 5000 feet AGL
scattered clouds at 7000 feet AGL
broken clouds at 10000 feet AGL
Weather: no significant weather observed at this time

METAR text: ENBO 201850Z 08014KT 9999 FEW050 SCT070 BKN100 M04/M09 Q1016 NOSIG
Conditions at: ENBO (BODO VI (CIV/MIL, NO) observed 1850 UTC 20 February 2019
Temperature: -4.0°C (25°F)
Dewpoint: -9.0°C (16°F) [RH = 68%]
Pressure (altimeter): 30.00 inches Hg (1016.0 mb)
Winds: from the E (80 degrees) at 16 MPH (14 knots; 7.2 m/s)
Visibility: 6 or more miles (10+ km)
Ceiling: 10000 feet AGL
Clouds: few clouds at 5000 feet AGL
scattered clouds at 7000 feet AGL
broken clouds at 10000 feet AGL
Weather: no significant weather observed at this time

METAR text: ENBO 201820Z 08014KT CAVOK M04/M09 Q1016 NOSIG
Conditions at: ENBO (BODO VI (CIV/MIL, NO) observed 1820 UTC 20 February 2019
Temperature: -4.0°C (25°F)
Dewpoint: -9.0°C (16°F) [RH = 68%]
Pressure (altimeter): 30.00 inches Hg (1016.0 mb)
Winds: from the E (80 degrees) at 16 MPH (14 knots; 7.2 m/s)
Visibility: 6 or more miles (10+ km)
Ceiling: ceiling and visibility are OK
Clouds: unknown
Weather: no significant weather observed at this time

METAR text: ENBO 201750Z 08013KT 9999 FEW060 BKN100 M04/M09 Q1015 NOSIG
Conditions at: ENBO (BODO VI (CIV/MIL, NO) observed 1750 UTC 20 February 2019
Temperature: -4.0°C (25°F)
Dewpoint: -9.0°C (16°F) [RH = 68%]
Pressure (altimeter): 29.97 inches Hg (1015.0 mb)
Winds: from the E (80 degrees) at 15 MPH (13 knots; 6.7 m/s)
Visibility: 6 or more miles (10+ km)
Ceiling: 10000 feet AGL
Clouds: few clouds at 6000 feet AGL
broken clouds at 10000 feet AGL
Weather: no significant weather observed at this time

METAR text: ENBO 201720Z 07012KT CAVOK M04/M10 Q1015 NOSIG
Conditions at: ENBO (BODO VI (CIV/MIL, NO) observed 1720 UTC 20 February 2019
Temperature: -4.0°C (25°F)
Dewpoint: -10.0°C (14°F) [RH = 63%]
Pressure (altimeter): 29.97 inches Hg (1015.0 mb)
Winds: from the ENE (70 degrees) at 14 MPH (12 knots; 6.2 m/s)
Visibility: 6 or more miles (10+ km)
Ceiling: ceiling and visibility are OK
Clouds: unknown
Weather: no significant weather observed at this time

METAR text: ENBO 201650Z 07012KT CAVOK M04/M10 Q1015 NOSIG
Conditions at: ENBO (BODO VI (CIV/MIL, NO) observed 1650 UTC 20 February 2019
Temperature: -4.0°C (25°F)
Dewpoint: -10.0°C (14°F) [RH = 63%]
Pressure (altimeter): 29.97 inches Hg (1015.0 mb)
Winds: from the ENE (70 degrees) at 14 MPH (12 knots; 6.2 m/s)
Visibility: 6 or more miles (10+ km)
Ceiling: ceiling and visibility are OK
Clouds: unknown
Weather: no significant weather observed at this time

METAR text: ENBO 201620Z 07010KT 9999 FEW040 BKN100 M04/M09 Q1015 NOSIG
Conditions at: ENBO (BODO VI (CIV/MIL, NO) observed 1620 UTC 20 February 2019
Temperature: -4.0°C (25°F)
Dewpoint: -9.0°C (16°F) [RH = 68%]
Pressure (altimeter): 29.97 inches Hg (1015.0 mb)
Winds: from the ENE (70 degrees) at 12 MPH (10 knots; 5.1 m/s)
Visibility: 6 or more miles (10+ km)
Ceiling: 10000 feet AGL
Clouds: few clouds at 4000 feet AGL
broken clouds at 10000 feet AGL
Weather: no significant weather observed at this time

METAR text: ENBO 201550Z 07012KT 9999 FEW030 SCT080 BKN100 M04/M09 Q1015 NOSIG
Conditions at: ENBO (BODO VI (CIV/MIL, NO) observed 1550 UTC 20 February 2019
Temperature: -4.0°C (25°F)
Dewpoint: -9.0°C (16°F) [RH = 68%]
Pressure (altimeter): 29.97 inches Hg (1015.0 mb)
Winds: from the ENE (70 degrees) at 14 MPH (12 knots; 6.2 m/s)
Visibility: 6 or more miles (10+ km)
Ceiling: 10000 feet AGL
Clouds: few clouds at 3000 feet AGL
scattered clouds at 8000 feet AGL
broken clouds at 10000 feet AGL
Weather: no significant weather observed at this time

METAR text: ENBO 201520Z 08012KT 9999 FEW030 BKN100 M04/M09 Q1015 NOSIG
Conditions at: ENBO (BODO VI (CIV/MIL, NO) observed 1520 UTC 20 February 2019
Temperature: -4.0°C (25°F)
Dewpoint: -9.0°C (16°F) [RH = 68%]
Pressure (altimeter): 29.97 inches Hg (1015.0 mb)
Winds: from the E (80 degrees) at 14 MPH (12 knots; 6.2 m/s)
Visibility: 6 or more miles (10+ km)
Ceiling: 10000 feet AGL
Clouds: few clouds at 3000 feet AGL
broken clouds at 10000 feet AGL
Weather: no significant weather observed at this time

METAR text: ENBO 201450Z 08011KT 9999 FEW020 BKN100 M04/M09 Q1015 NOSIG
Conditions at: ENBO (BODO VI (CIV/MIL, NO) observed 1450 UTC 20 February 2019
Temperature: -4.0°C (25°F)
Dewpoint: -9.0°C (16°F) [RH = 68%]
Pressure (altimeter): 29.97 inches Hg (1015.0 mb)
Winds: from the E (80 degrees) at 13 MPH (11 knots; 5.7 m/s)
Visibility: 6 or more miles (10+ km)
Ceiling: 10000 feet AGL
Clouds: few clouds at 2000 feet AGL
broken clouds at 10000 feet AGL
Weather: no significant weather observed at this time

METAR text: ENBO 201420Z 08011KT 9999 FEW020 BKN110 M04/M09 Q1014 NOSIG
Conditions at: ENBO (BODO VI (CIV/MIL, NO) observed 1420 UTC 20 February 2019
Temperature: -4.0°C (25°F)
Dewpoint: -9.0°C (16°F) [RH = 68%]
Pressure (altimeter): 29.94 inches Hg (1014.0 mb)
Winds: from the E (80 degrees) at 13 MPH (11 knots; 5.7 m/s)
Visibility: 6 or more miles (10+ km)
Ceiling: 11000 feet AGL
Clouds: few clouds at 2000 feet AGL
broken clouds at 11000 feet AGL
Weather: no significant weather observed at this time

Forecast for: ENBO (BODO VI (CIV/MIL, NO)
Text: TAF ENBO 2200/2224 09018KT 9999 BKN030
Forecast period: 0000 to 1000 UTC 22 February 2019
Forecast type: FROM: standard forecast or significant change
Winds: from the E (90 degrees) at 21 MPH (18 knots; 9.3 m/s)
Visibility: 6 or more miles 10+ km)
Ceiling: 3000 feet AGL
Clouds: broken clouds at 3000 feet AGL
Weather: no significant weather forecast for this period
Text: TEMPO 2208/2224 2500 RADZ BR OVC007
Forecast period: 0800 UTC 22 February 2019 to 0000 UTC 23 February 2019
Forecast type: TEMPORARY: The following changes expected for less than half the time period
Visibility: 1.55 miles (2.49 km)
Ceiling: 700 feet AGL
Clouds: overcast cloud deck at 700 feet AGL
Weather: RA DZ BR  (moderate rain, moderate drizzle, mist)
Text: PROB30 2208/2211 FZRA
Forecast period: 0800 to 1100 UTC 22 February 2019
Forecast type: PROBABLE: 30 percent likelihood of the following during this time
Visibility: missing
Ceiling: unknown
Clouds: missing
Weather: FZRA  (freezing rain)
Text: BECMG 2210/2212 22025KT
Forecast period: 1000 UTC 22 February 2019 to 0000 UTC 23 February 2019
Forecast type: BECOMING: Conditions expected to become as follows by 1200 UTC 22 February 2019
Winds: from the SW (220 degrees) at 29 MPH (25 knots; 12.9 m/s)
Visibility: 6 or more miles 10+ km)
Ceiling: 3000 feet AGL
Clouds: broken clouds at 3000 feet AGL
Weather: no significant weather forecast for this period
Text: TEMPO 2210/2224 23035G50KT
Forecast period: 1000 UTC 22 February 2019 to 0000 UTC 23 February 2019
Forecast type: TEMPORARY: The following changes expected for less than half the time period
Winds: from the SW (230 degrees) at 40 MPH (35 knots; 18.0 m/s)
gusting to 57 MPH (50 knots; 25.7 m/s)
Visibility: missing
Ceiling: unknown
Clouds: missing
Weather: no significant weather forecast for this period